Fruita, Colorado
Current Conditions -  °F | °C
As of 12:53 PM on Saturday 20 Dec 2014 (Local Time) from KGJT Reporting Station
Clear Clear  
Wind Chill: 38°   Ceiling: Unl
Heat Index: 38°   Visibility: 10mi
Dew Point: 23°   Wind: 3mph
Humidity: 55%   Direction: 340°NNW
Pressure: 30.14"   Gusts: NA
Location:  39.16°N, 108.73°W
Report Text: KGJT 201953Z 34003KT 10SM CLR 03/M05 A3014 RMK AO2 SLP215 T00331050
Loading
Personal Weather Stations






























Interactive Weather Map New forecast layout! Learn more

10-Day Weather Forecast

Advertisements
Track Severe Weather on mobile